createdAt,value
2019-06-07T00:00:36.605Z,4.00
2019-06-07T00:01:22.379Z,4.10
2019-06-07T00:02:27.889Z,4.20
2019-06-07T00:03:33.403Z,4.10
2019-06-07T00:04:38.914Z,4.20
2019-06-07T00:05:44.423Z,4.40
2019-06-07T00:06:49.942Z,4.20
2019-06-07T00:07:55.444Z,4.10
2019-06-07T00:09:00.959Z,4.40
2019-06-07T00:10:06.907Z,4.10
2019-06-07T00:11:15.650Z,3.80
2019-06-07T00:12:21.092Z,4.10
2019-06-07T00:13:23.020Z,4.20
2019-06-07T00:14:28.523Z,4.20
2019-06-07T00:15:34.048Z,4.30
2019-06-07T00:16:39.546Z,4.10
2019-06-07T00:17:45.055Z,4.10
2019-06-07T00:18:50.572Z,4.10
2019-06-07T00:19:56.085Z,4.30
2019-06-07T00:21:01.592Z,4.20
2019-06-07T00:22:16.577Z,4.00
2019-06-07T00:23:17.212Z,4.10
2019-06-07T00:24:19.400Z,3.90
2019-06-07T00:25:24.575Z,3.70
2019-06-07T00:26:29.171Z,4.00
2019-06-07T00:27:34.671Z,3.90
2019-06-07T00:28:40.211Z,3.80
2019-06-07T00:29:45.691Z,4.00
2019-06-07T00:30:52.663Z,4.10
2019-06-07T00:31:56.720Z,4.00
2019-06-07T00:33:02.233Z,4.10
2019-06-07T00:34:10.314Z,3.40
2019-06-07T00:35:15.451Z,3.50
2019-06-07T00:36:20.685Z,3.90
2019-06-07T00:37:25.616Z,3.90
2019-06-07T00:38:29.796Z,3.80
2019-06-07T00:39:35.311Z,3.80
2019-06-07T00:40:40.820Z,4.00
2019-06-07T00:41:46.332Z,3.80
2019-06-07T00:42:51.849Z,3.40
2019-06-07T00:43:57.362Z,4.20
2019-06-07T00:45:02.871Z,3.90
2019-06-07T00:46:08.385Z,3.90
2019-06-07T00:47:16.434Z,3.80
2019-06-07T00:48:27.538Z,3.90
2019-06-07T00:49:39.817Z,4.40
2019-06-07T00:50:30.424Z,3.90
2019-06-07T00:51:50.159Z,4.00
2019-06-07T00:53:14.096Z,3.70
2019-06-07T00:53:46.975Z,4.10
2019-06-07T00:54:52.482Z,4.10
2019-06-07T00:55:57.992Z,4.10
2019-06-07T00:57:03.551Z,4.20
2019-06-07T00:58:09.011Z,4.20
2019-06-07T00:59:16.879Z,4.30
2019-06-07T01:00:22.292Z,4.30
2019-06-07T01:01:25.727Z,4.40
2019-06-07T01:02:31.677Z,4.40
2019-06-07T01:03:36.588Z,3.90
2019-06-07T01:04:42.143Z,3.90
2019-06-07T01:05:47.609Z,3.80
2019-06-07T01:06:53.123Z,4.00
2019-06-07T01:07:58.660Z,3.90
2019-06-07T01:09:04.135Z,3.80
2019-06-07T01:10:09.643Z,3.70
2019-06-07T01:11:15.954Z,3.90
2019-06-07T01:12:22.099Z,3.70
2019-06-07T01:13:26.879Z,3.90
2019-06-07T01:14:31.715Z,4.00
2019-06-07T01:15:37.226Z,3.70
2019-06-07T01:16:56.389Z,3.80
2019-06-07T01:18:25.847Z,3.70
2019-06-07T01:18:53.741Z,3.80
2019-06-07T01:19:59.257Z,3.70
2019-06-07T01:21:04.768Z,4.00
2019-06-07T01:22:10.282Z,3.80
2019-06-07T01:23:56.590Z,3.40
2019-06-07T01:24:24.575Z,3.90
2019-06-07T01:25:28.906Z,4.10
2019-06-07T01:26:32.338Z,3.90
2019-06-07T01:27:37.863Z,4.10
2019-06-07T01:28:43.381Z,3.80
2019-06-07T01:29:48.855Z,3.80
2019-06-07T01:30:54.379Z,4.70
2019-06-07T01:31:59.895Z,4.20
2019-06-07T01:33:05.397Z,3.80
2019-06-07T01:34:10.911Z,4.30
2019-06-07T01:35:16.633Z,4.00
2019-06-07T01:36:24.414Z,3.90
2019-06-07T01:37:28.469Z,4.20
2019-06-07T01:38:32.962Z,4.40
2019-06-07T01:39:38.471Z,4.30
2019-06-07T01:40:43.980Z,4.50
2019-06-07T01:41:49.493Z,4.40
2019-06-07T01:42:55.010Z,4.40
2019-06-07T01:44:00.523Z,4.00
2019-06-07T01:45:06.026Z,4.20
2019-06-07T01:46:11.552Z,4.20
2019-06-07T01:47:17.860Z,4.20
2019-06-07T01:48:25.396Z,4.20
2019-06-07T01:49:29.495Z,4.30
2019-06-07T01:50:33.592Z,4.30
2019-06-07T01:51:39.118Z,4.30
2019-06-07T01:52:44.611Z,4.40
2019-06-07T01:53:50.125Z,4.30
2019-06-07T01:54:58.438Z,4.30
2019-06-07T01:56:01.143Z,4.00
2019-06-07T01:57:06.674Z,4.10
2019-06-07T01:58:12.169Z,3.60
2019-06-07T01:59:17.849Z,3.70
2019-06-07T02:00:24.117Z,3.90
2019-06-07T02:01:34.678Z,4.00
2019-06-07T02:02:34.220Z,4.00
2019-06-07T02:03:39.724Z,3.70
2019-06-07T02:04:45.303Z,4.30
2019-06-07T02:05:50.759Z,4.20
2019-06-07T02:06:56.264Z,4.40
2019-06-07T02:08:01.786Z,4.10
2019-06-07T02:09:07.290Z,4.50
2019-06-07T02:10:12.810Z,4.30
2019-06-07T02:11:20.605Z,4.10
2019-06-07T02:12:32.271Z,4.00
2019-06-07T02:13:30.710Z,4.20
2019-06-07T02:14:34.845Z,4.10
2019-06-07T02:15:40.354Z,3.60
2019-06-07T02:16:45.871Z,4.00
2019-06-07T02:17:51.379Z,4.00
2019-06-07T02:19:01.926Z,3.70
2019-06-07T02:20:02.420Z,4.20
2019-06-07T02:21:07.911Z,4.10
2019-06-07T02:22:13.426Z,3.90
2019-06-07T02:23:20.296Z,4.00
2019-06-07T02:24:25.281Z,3.80
2019-06-07T02:25:46.138Z,3.70
2019-06-07T02:26:35.477Z,4.20
2019-06-07T02:27:40.991Z,4.10
2019-06-07T02:28:46.498Z,4.10
2019-06-07T02:29:52.017Z,4.30
2019-06-07T02:31:00.228Z,4.10
2019-06-07T02:32:03.068Z,4.20
2019-06-07T02:33:08.540Z,4.20
2019-06-07T02:34:14.060Z,4.20
2019-06-07T02:35:19.566Z,4.30
2019-06-07T02:36:29.707Z,4.00
2019-06-07T02:37:34.089Z,4.60
2019-06-07T02:38:37.830Z,3.80
2019-06-07T02:39:41.615Z,4.20
2019-06-07T02:40:47.124Z,4.00
2019-06-07T02:41:52.637Z,4.40
2019-06-07T02:42:58.158Z,4.50
2019-06-07T02:44:03.668Z,4.30
2019-06-07T02:45:10.858Z,4.50
2019-06-07T02:46:28.209Z,4.10
2019-06-07T02:47:20.197Z,3.90
2019-06-07T02:48:27.988Z,4.20
2019-06-07T02:49:37.301Z,4.30
2019-06-07T02:50:38.783Z,4.20
2019-06-07T02:51:42.253Z,4.00
2019-06-07T02:52:49.100Z,4.40
2019-06-07T02:53:53.270Z,4.10
2019-06-07T02:54:58.777Z,4.20
2019-06-07T02:57:09.811Z,4.50
2019-06-07T02:58:15.312Z,4.20
2019-06-07T02:59:44.826Z,4.60
2019-06-07T03:00:45.690Z,4.50
2019-06-07T03:01:38.581Z,4.30
2019-06-07T03:02:41.213Z,4.30
2019-06-07T03:03:42.873Z,4.50
2019-06-07T03:04:48.379Z,4.30
2019-06-07T03:05:53.915Z,4.40
2019-06-07T03:06:59.405Z,4.00
2019-06-07T03:08:04.914Z,4.60
2019-06-07T03:09:10.427Z,4.10
2019-06-07T03:10:15.933Z,4.10
2019-06-07T03:11:21.453Z,4.10
2019-06-07T03:12:28.972Z,4.60
2019-06-07T03:13:34.190Z,4.50
2019-06-07T03:14:39.398Z,4.40
2019-06-07T03:15:49.966Z,5.10
2019-06-07T03:16:49.011Z,4.40
2019-06-07T03:17:54.519Z,4.60
2019-06-07T03:19:00.027Z,4.30
2019-06-07T03:20:05.551Z,4.70
2019-06-07T03:21:11.048Z,4.60
2019-06-07T03:22:16.562Z,4.70
2019-06-07T03:23:22.081Z,4.70
2019-06-07T03:24:30.091Z,5.10
2019-06-07T03:25:35.726Z,5.20
2019-06-07T03:27:23.992Z,5.00
2019-06-07T03:27:50.048Z,4.60
2019-06-07T03:28:49.645Z,5.40
2019-06-07T03:29:55.143Z,4.50
2019-06-07T03:31:02.698Z,4.80
2019-06-07T03:32:06.165Z,4.70
2019-06-07T03:33:11.677Z,4.80
2019-06-07T03:34:17.188Z,4.60
2019-06-07T03:35:22.697Z,4.40
2019-06-07T03:36:29.634Z,4.60
2019-06-07T03:37:37.630Z,4.60
2019-06-07T03:38:39.842Z,4.40
2019-06-07T03:39:44.747Z,4.80
2019-06-07T03:40:50.254Z,4.50
2019-06-07T03:42:06.389Z,4.70
2019-06-07T03:43:01.276Z,4.30
2019-06-07T03:44:06.789Z,4.30
2019-06-07T03:45:12.302Z,4.70
2019-06-07T03:46:17.819Z,4.40
2019-06-07T03:47:23.327Z,5.00
2019-06-07T03:48:30.216Z,4.80
2019-06-07T03:49:36.462Z,4.90
2019-06-07T03:50:42.389Z,5.30
2019-06-07T03:51:45.371Z,5.30
2019-06-07T03:52:51.182Z,5.60
2019-06-07T03:53:56.394Z,4.80
2019-06-07T03:55:01.905Z,4.90
2019-06-07T03:56:07.425Z,5.20
2019-06-07T03:57:12.935Z,4.80
2019-06-07T03:58:31.527Z,5.10
2019-06-07T03:59:23.956Z,4.80
2019-06-07T04:00:32.512Z,5.10
2019-06-07T04:01:37.755Z,5.20
2019-06-07T04:02:41.931Z,5.30
2019-06-07T04:03:51.372Z,4.90
2019-06-07T04:04:51.505Z,4.70
2019-06-07T04:05:57.020Z,4.70
2019-06-07T04:07:02.530Z,4.50
2019-06-07T04:08:08.043Z,4.80
2019-06-07T04:09:13.548Z,4.80
2019-06-07T04:10:19.066Z,4.60
2019-06-07T04:11:24.577Z,4.70
2019-06-07T04:12:31.859Z,4.40
2019-06-07T04:13:39.919Z,4.70
2019-06-07T04:14:42.966Z,4.60
2019-06-07T04:15:46.912Z,5.10
2019-06-07T04:16:52.593Z,5.10
2019-06-07T04:18:02.353Z,5.20
2019-06-07T04:19:03.174Z,5.30
2019-06-07T04:20:08.690Z,5.10
2019-06-07T04:21:14.181Z,5.30
2019-06-07T04:22:19.703Z,5.20
2019-06-07T04:23:28.281Z,5.00
2019-06-07T04:24:31.129Z,5.60
2019-06-07T04:25:39.504Z,5.20
2019-06-07T04:26:43.743Z,5.60
2019-06-07T04:27:47.242Z,5.30
2019-06-07T04:29:31.754Z,5.20
2019-06-07T04:30:07.579Z,5.10
2019-06-07T04:31:03.779Z,5.20
2019-06-07T04:32:09.301Z,5.00
2019-06-07T04:33:14.820Z,5.20
2019-06-07T04:34:20.314Z,5.10
2019-06-07T04:35:25.826Z,5.10
2019-06-07T04:36:45.696Z,5.00
2019-06-07T04:37:40.648Z,5.30
2019-06-07T04:38:42.732Z,5.50
2019-06-07T04:39:47.875Z,5.70
2019-06-07T04:40:53.384Z,5.70
2019-06-07T04:41:58.893Z,5.50
2019-06-07T04:43:04.415Z,5.70
2019-06-07T04:44:09.918Z,5.60
2019-06-07T04:45:33.193Z,5.70
2019-06-07T04:46:20.962Z,5.30
2019-06-07T04:47:26.452Z,6.10
2019-06-07T04:48:33.256Z,6.10
2019-06-07T04:49:41.786Z,6.00
2019-06-07T04:50:44.108Z,5.80
2019-06-07T04:51:48.514Z,5.80
2019-06-07T04:52:54.020Z,6.00
2019-06-07T04:53:59.522Z,6.20
2019-06-07T04:55:05.037Z,6.70
2019-06-07T04:56:10.546Z,6.30
2019-06-07T04:57:16.053Z,6.70
2019-06-07T04:58:21.567Z,6.60
2019-06-07T05:00:10.943Z,6.40
2019-06-07T05:00:55.618Z,6.10
2019-06-07T05:01:41.389Z,6.60
2019-06-07T05:02:43.799Z,6.20
2019-06-07T05:03:49.141Z,6.20
2019-06-07T05:04:54.644Z,5.90
2019-06-07T05:06:00.151Z,6.40
2019-06-07T05:07:05.664Z,6.00
2019-06-07T05:08:26.934Z,5.90
2019-06-07T05:09:16.685Z,6.00
2019-06-07T05:10:22.197Z,5.50
2019-06-07T05:11:27.729Z,5.60
2019-06-07T05:12:35.446Z,5.60
2019-06-07T05:13:43.048Z,5.40
2019-06-07T05:14:44.448Z,5.60
2019-06-07T05:15:49.761Z,5.10
2019-06-07T05:16:55.272Z,6.00
2019-06-07T05:18:00.783Z,5.10
2019-06-07T05:19:06.288Z,5.20
2019-06-07T05:20:11.805Z,4.90
2019-06-07T05:21:17.335Z,4.80
2019-06-07T05:22:22.829Z,5.10
2019-06-07T05:23:59.881Z,5.00
2019-06-07T05:24:35.611Z,5.30
2019-06-07T05:25:44.436Z,5.20
2019-06-07T05:26:44.889Z,4.70
2019-06-07T05:27:50.392Z,4.80
2019-06-07T05:28:55.900Z,4.90
2019-06-07T05:30:24.249Z,4.40
2019-06-07T05:31:07.971Z,4.60
2019-06-07T05:32:12.445Z,4.70
2019-06-07T05:33:17.950Z,4.60
2019-06-07T05:34:23.469Z,4.60
2019-06-07T05:35:28.975Z,4.90
2019-06-07T05:36:36.704Z,4.90
2019-06-07T05:37:43.781Z,4.50
2019-06-07T05:38:45.515Z,4.60
2019-06-07T05:39:51.025Z,4.70
2019-06-07T05:40:56.533Z,4.70
2019-06-07T05:42:02.042Z,4.30
2019-06-07T05:43:07.565Z,4.50
2019-06-07T05:44:14.949Z,4.60
2019-06-07T05:45:18.581Z,4.50
2019-06-07T05:46:24.108Z,4.60
2019-06-07T05:47:29.605Z,4.50
2019-06-07T05:48:36.637Z,4.70
2019-06-07T05:49:43.804Z,4.30
2019-06-07T05:50:56.011Z,4.40
2019-06-07T05:51:51.662Z,4.50
2019-06-07T05:52:57.235Z,4.40
2019-06-07T05:54:02.691Z,4.40
2019-06-07T05:55:08.202Z,4.00
2019-06-07T05:56:14.416Z,4.00
2019-06-07T05:57:19.218Z,4.60
2019-06-07T05:58:24.739Z,4.10
2019-06-07T05:59:30.255Z,4.00
2019-06-07T06:00:36.884Z,4.30
2019-06-07T06:01:52.363Z,4.00
2019-06-07T06:03:04.108Z,4.40
2019-06-07T06:03:52.303Z,4.60
2019-06-07T06:04:57.822Z,4.20
2019-06-07T06:06:03.372Z,4.50
2019-06-07T06:07:08.862Z,4.10
2019-06-07T06:08:14.349Z,4.20
2019-06-07T06:09:19.875Z,3.80
2019-06-07T06:10:25.360Z,3.90
2019-06-07T06:11:45.733Z,3.80
2019-06-07T06:12:40.876Z,4.20
2019-06-07T06:14:04.669Z,3.80
2019-06-07T06:14:47.423Z,3.90
2019-06-07T06:16:01.425Z,4.40
2019-06-07T06:16:58.444Z,4.40
2019-06-07T06:18:03.965Z,4.30
2019-06-07T06:19:09.473Z,4.30
2019-06-07T06:20:15.125Z,4.30
2019-06-07T06:21:20.734Z,4.30
2019-06-07T06:22:26.015Z,4.00
2019-06-07T06:23:31.568Z,4.10
2019-06-07T06:24:37.670Z,4.30
2019-06-07T06:25:49.788Z,4.00
2019-06-07T06:26:54.082Z,4.00
2019-06-07T06:28:10.175Z,4.00
2019-06-07T06:28:59.093Z,3.90
2019-06-07T06:30:04.611Z,3.40
2019-06-07T06:31:10.117Z,3.80
2019-06-07T06:32:41.308Z,3.40
2019-06-07T06:33:33.819Z,4.00
2019-06-07T06:34:26.670Z,3.40
2019-06-07T06:35:32.170Z,3.40
2019-06-07T06:36:39.748Z,3.50
2019-06-07T06:37:47.122Z,3.60
2019-06-07T06:38:49.702Z,3.40
2019-06-07T06:39:54.223Z,3.40
2019-06-07T06:41:15.158Z,3.80
2019-06-07T06:42:05.271Z,4.10
2019-06-07T06:43:10.795Z,3.40
2019-06-07T06:44:16.277Z,3.90
2019-06-07T06:45:21.793Z,3.60
2019-06-07T06:46:38.783Z,3.60
2019-06-07T06:47:32.824Z,3.50
2019-06-07T06:48:40.859Z,3.20
2019-06-07T06:49:46.138Z,3.50
2019-06-07T06:50:52.423Z,3.60
2019-06-07T06:51:54.867Z,3.50
2019-06-07T06:53:00.380Z,3.50
2019-06-07T06:54:05.899Z,3.20
2019-06-07T06:55:11.416Z,3.50
2019-06-07T06:56:16.925Z,3.60
2019-06-07T06:57:22.442Z,3.20
2019-06-07T06:58:27.954Z,3.00
2019-06-07T06:59:39.179Z,3.40
2019-06-07T07:00:46.343Z,3.20
2019-06-07T07:01:45.163Z,3.30
2019-06-07T07:03:41.838Z,3.30
2019-06-07T07:04:10.673Z,3.70
2019-06-07T07:05:01.033Z,3.40
2019-06-07T07:06:25.152Z,3.40
2019-06-07T07:07:12.066Z,3.40
2019-06-07T07:08:17.577Z,3.50
2019-06-07T07:09:23.094Z,3.10
2019-06-07T07:10:28.603Z,3.40
2019-06-07T07:11:34.117Z,3.50
2019-06-07T07:12:40.637Z,3.60
2019-06-07T07:13:49.177Z,3.50
2019-06-07T07:14:55.145Z,3.80
2019-06-07T07:15:58.388Z,3.60
2019-06-07T07:17:01.702Z,3.70
2019-06-07T07:18:08.859Z,4.00
2019-06-07T07:19:12.718Z,3.80
2019-06-07T07:20:18.242Z,3.70
2019-06-07T07:21:23.755Z,3.70
2019-06-07T07:22:29.275Z,4.20
2019-06-07T07:23:34.768Z,4.10
2019-06-07T07:24:40.296Z,3.70
2019-06-07T07:25:50.811Z,3.70
2019-06-07T07:26:53.938Z,3.50
2019-06-07T07:27:56.830Z,3.80
2019-06-07T07:29:02.342Z,3.70
2019-06-07T07:30:35.415Z,3.50
2019-06-07T07:31:13.375Z,3.40
2019-06-07T07:32:18.885Z,3.60
2019-06-07T07:33:24.392Z,3.40
2019-06-07T07:34:36.171Z,3.90
2019-06-07T07:35:35.424Z,3.90
2019-06-07T07:36:40.952Z,3.90
2019-06-07T07:37:53.527Z,3.70
2019-06-07T07:39:03.049Z,3.70
2019-06-07T07:40:21.366Z,3.80
2019-06-07T07:41:14.518Z,3.70
2019-06-07T07:42:20.647Z,3.80
2019-06-07T07:43:14.032Z,3.80
2019-06-07T07:44:19.545Z,4.20
2019-06-07T07:45:25.061Z,4.10
2019-06-07T07:46:30.630Z,4.10
2019-06-07T07:47:36.086Z,4.10
2019-06-07T07:48:41.602Z,3.90
2019-06-07T07:49:48.473Z,3.70
2019-06-07T07:50:56.927Z,4.00
2019-06-07T07:51:59.025Z,3.80
2019-06-07T07:53:03.660Z,3.90
2019-06-07T07:54:11.051Z,4.00
2019-06-07T07:55:14.751Z,3.70
2019-06-07T07:56:20.210Z,3.40
2019-06-07T07:57:25.717Z,3.60
2019-06-07T07:58:31.300Z,3.40
2019-06-07T07:59:42.154Z,3.40
2019-06-07T08:00:55.010Z,3.70
2019-06-07T08:01:48.666Z,3.90
2019-06-07T08:02:58.493Z,3.70
2019-06-07T08:03:58.825Z,3.50
2019-06-07T08:05:21.731Z,3.30
2019-06-07T08:06:09.847Z,3.40
2019-06-07T08:07:15.358Z,3.20
2019-06-07T08:08:20.897Z,3.30
2019-06-07T08:09:26.388Z,3.00
2019-06-07T08:10:31.910Z,2.90
2019-06-07T08:11:37.409Z,2.90
2019-06-07T08:13:00.493Z,3.20
2019-06-07T08:13:48.446Z,2.90
2019-06-07T08:14:58.558Z,2.80
2019-06-07T08:16:06.575Z,3.20
2019-06-07T08:17:05.025Z,3.30
2019-06-07T08:18:10.504Z,3.10
2019-06-07T08:19:16.024Z,3.50
2019-06-07T08:20:21.534Z,3.20
2019-06-07T08:21:27.382Z,3.00
2019-06-07T08:22:32.563Z,3.20
2019-06-07T08:23:38.076Z,2.90
2019-06-07T08:24:43.585Z,3.00
2019-06-07T08:25:49.259Z,3.10
2019-06-07T08:27:17.853Z,2.80
2019-06-07T08:28:00.140Z,2.80
2019-06-07T08:29:05.661Z,2.90
2019-06-07T08:30:46.657Z,3.20
2019-06-07T08:31:16.686Z,3.10
2019-06-07T08:32:22.195Z,3.20
2019-06-07T08:33:27.732Z,3.20
2019-06-07T08:34:33.302Z,3.00
2019-06-07T08:36:44.263Z,2.90
2019-06-07T08:38:33.822Z,2.70
2019-06-07T08:39:00.469Z,3.00
2019-06-07T08:40:01.970Z,2.70
2019-06-07T08:41:11.868Z,2.80
2019-06-07T08:42:17.671Z,2.80
2019-06-07T08:43:20.614Z,2.70
2019-06-07T08:44:25.501Z,2.80
2019-06-07T08:45:28.386Z,2.50
2019-06-07T08:46:33.932Z,2.60
2019-06-07T08:47:39.425Z,2.50
2019-06-07T08:48:44.942Z,2.70
2019-06-07T08:49:50.588Z,2.60
2019-06-07T08:51:00.720Z,2.50
2019-06-07T08:52:10.510Z,2.60
2019-06-07T08:53:12.114Z,2.50
2019-06-07T08:54:22.319Z,2.40
2019-06-07T08:55:18.026Z,2.50
2019-06-07T08:56:23.546Z,2.60
2019-06-07T08:57:29.062Z,2.70
2019-06-07T08:58:34.593Z,2.70
2019-06-07T08:59:40.083Z,2.40
2019-06-07T09:00:47.503Z,2.30
2019-06-07T09:01:53.701Z,2.60
2019-06-07T09:02:58.808Z,2.70
2019-06-07T09:04:07.654Z,2.60
2019-06-07T09:05:12.199Z,2.50
2019-06-07T09:07:01.014Z,2.50
2019-06-07T09:07:19.939Z,2.60
2019-06-07T09:08:30.319Z,2.80
2019-06-07T09:09:29.752Z,2.60
2019-06-07T09:10:35.243Z,2.60
2019-06-07T09:11:40.761Z,2.40
2019-06-07T09:12:46.272Z,2.40
2019-06-07T09:13:54.493Z,2.20
2019-06-07T09:15:12.105Z,2.40
2019-06-07T09:16:06.749Z,2.50
2019-06-07T09:17:12.080Z,2.50
2019-06-07T09:18:44.773Z,2.40
2019-06-07T09:19:19.372Z,2.50
2019-06-07T09:20:36.447Z,2.50
2019-06-07T09:21:30.400Z,2.70
2019-06-07T09:22:35.921Z,2.50
2019-06-07T09:23:41.453Z,2.50
2019-06-07T09:24:46.954Z,2.50
2019-06-07T09:26:02.590Z,2.80
2019-06-07T09:27:00.259Z,2.80
2019-06-07T09:28:13.998Z,2.50
2019-06-07T09:29:11.798Z,2.50
2019-06-07T09:30:18.565Z,2.50
2019-06-07T09:31:20.068Z,2.80
2019-06-07T09:32:25.575Z,2.70
2019-06-07T09:33:31.086Z,2.50
2019-06-07T09:34:36.733Z,2.50
2019-06-07T09:35:42.119Z,2.40
2019-06-07T09:36:47.662Z,2.50
2019-06-07T09:38:07.364Z,2.60
2019-06-07T09:38:59.560Z,2.50
2019-06-07T09:40:19.607Z,2.50
2019-06-07T09:41:09.911Z,2.90
2019-06-07T09:42:15.225Z,2.80
2019-06-07T09:44:26.760Z,2.40
2019-06-07T09:45:31.770Z,2.40
2019-06-07T09:46:37.279Z,2.30
2019-06-07T09:47:42.796Z,2.40
2019-06-07T09:49:10.762Z,2.70
2019-06-07T09:49:53.833Z,2.30
2019-06-07T09:51:00.891Z,2.50
2019-06-07T09:52:10.376Z,2.40
2019-06-07T09:53:21.633Z,2.50
2019-06-07T09:55:02.424Z,2.60
2019-06-07T09:55:24.736Z,2.50
2019-06-07T09:56:26.931Z,2.70
2019-06-07T09:57:32.448Z,2.40
2019-06-07T09:58:54.216Z,2.30
2019-06-07T09:59:43.484Z,2.60
2019-06-07T10:00:49.007Z,2.40
2019-06-07T10:01:54.518Z,2.30
2019-06-07T10:03:07.891Z,2.50
2019-06-07T10:04:09.020Z,2.40
2019-06-07T10:05:14.162Z,2.50
2019-06-07T10:06:16.588Z,2.20
2019-06-07T10:07:31.205Z,2.40
2019-06-07T10:09:42.227Z,2.40
2019-06-07T10:10:38.665Z,2.50
2019-06-07T10:11:44.174Z,2.40
2019-06-07T10:12:49.716Z,2.60
2019-06-07T10:13:55.206Z,2.40
2019-06-07T10:15:00.735Z,2.30
2019-06-07T10:16:07.092Z,2.40
2019-06-07T10:17:11.776Z,2.40
2019-06-07T10:18:17.273Z,2.30
2019-06-07T10:19:22.797Z,2.30
2019-06-07T10:20:28.310Z,2.20
2019-06-07T10:21:33.834Z,2.40
2019-06-07T10:22:39.353Z,2.50
2019-06-07T10:23:44.868Z,2.40
2019-06-07T10:24:50.382Z,2.20
2019-06-07T10:25:55.913Z,2.30
2019-06-07T10:27:01.710Z,2.40
2019-06-07T10:28:08.247Z,2.50
2019-06-07T10:29:12.458Z,2.30
2019-06-07T10:30:17.978Z,2.40
2019-06-07T10:31:23.497Z,2.40
2019-06-07T10:32:29.027Z,2.30
2019-06-07T10:33:34.521Z,2.30
2019-06-07T10:34:40.044Z,2.40
2019-06-07T10:35:45.570Z,2.20
2019-06-07T10:36:51.112Z,2.30
2019-06-07T10:37:58.266Z,2.20
2019-06-07T10:39:02.879Z,2.30
2019-06-07T10:40:09.090Z,2.30
2019-06-07T10:41:13.169Z,2.20
2019-06-07T10:42:18.668Z,2.30
2019-06-07T10:43:24.195Z,2.60
2019-06-07T10:44:29.708Z,2.30
2019-06-07T10:45:35.223Z,2.20
2019-06-07T10:46:40.750Z,2.20
2019-06-07T10:47:46.269Z,2.30
2019-06-07T10:48:51.781Z,2.20
2019-06-07T10:49:57.295Z,2.30
2019-06-07T10:51:04.095Z,2.20
2019-06-07T10:52:09.716Z,2.40
2019-06-07T10:53:13.858Z,2.30
2019-06-07T10:54:26.726Z,2.10
2019-06-07T10:55:24.886Z,2.30
2019-06-07T10:56:30.411Z,2.20
2019-06-07T10:57:35.923Z,2.20
2019-06-07T10:58:41.445Z,2.20
2019-06-07T10:59:46.967Z,2.60
2019-06-07T11:00:52.475Z,2.30
2019-06-07T11:01:57.997Z,2.20
2019-06-07T11:03:03.697Z,2.30
2019-06-07T11:04:09.604Z,2.30
2019-06-07T11:05:14.620Z,2.10
2019-06-07T11:06:20.072Z,2.30
2019-06-07T11:07:25.677Z,2.40
2019-06-07T11:08:31.113Z,2.10
2019-06-07T11:09:36.621Z,2.00
2019-06-07T11:10:42.146Z,1.90
2019-06-07T11:11:47.663Z,2.20
2019-06-07T11:12:53.189Z,2.20
2019-06-07T11:13:58.696Z,2.40
2019-06-07T11:15:04.539Z,2.20
2019-06-07T11:16:11.073Z,2.30
2019-06-07T11:17:15.920Z,2.10
2019-06-07T11:18:20.782Z,2.20
2019-06-07T11:19:26.294Z,2.40
2019-06-07T11:20:31.831Z,2.40
2019-06-07T11:21:37.327Z,1.90
2019-06-07T11:22:42.847Z,2.20
2019-06-07T11:23:48.392Z,1.90
2019-06-07T11:24:53.897Z,2.30
2019-06-07T11:25:59.409Z,2.30
2019-06-07T11:27:06.729Z,2.30
2019-06-07T11:28:10.658Z,2.20
2019-06-07T11:29:15.971Z,2.40
2019-06-07T11:30:21.495Z,2.20
2019-06-07T11:31:27.013Z,2.40
2019-06-07T11:32:32.522Z,2.10
2019-06-07T11:33:38.176Z,1.90
2019-06-07T11:34:43.563Z,2.10
2019-06-07T11:35:49.076Z,2.40
2019-06-07T11:36:54.601Z,1.90
2019-06-07T11:38:00.114Z,2.20
2019-06-07T11:39:06.502Z,2.20
2019-06-07T11:40:27.817Z,2.00
2019-06-07T11:41:17.861Z,2.10
2019-06-07T11:42:22.194Z,2.10
2019-06-07T11:43:27.714Z,1.90
2019-06-07T11:44:33.234Z,2.00
2019-06-07T11:45:38.749Z,2.30
2019-06-07T11:46:44.287Z,2.10
2019-06-07T11:47:49.786Z,1.90
2019-06-07T11:48:55.302Z,2.10
2019-06-07T11:50:00.854Z,2.00
2019-06-07T11:51:06.681Z,1.80
2019-06-07T11:52:11.865Z,2.00
2019-06-07T11:53:19.804Z,2.10
2019-06-07T11:54:22.905Z,2.10
2019-06-07T11:55:28.433Z,2.30
2019-06-07T11:56:33.944Z,2.10
2019-06-07T11:57:39.462Z,2.00
2019-06-07T11:58:44.999Z,2.10
2019-06-07T11:59:50.528Z,2.10
2019-06-07T12:00:56.022Z,2.10
2019-06-07T12:02:01.539Z,1.80
2019-06-07T12:03:07.385Z,2.00
2019-06-07T12:04:14.052Z,2.20
2019-06-07T12:05:20.077Z,2.00
2019-06-07T12:06:23.614Z,2.30
2019-06-07T12:07:29.141Z,2.30
2019-06-07T12:08:34.670Z,2.10
2019-06-07T12:09:55.546Z,2.50
2019-06-07T12:10:45.695Z,2.20
2019-06-07T12:11:51.231Z,2.00
2019-06-07T12:12:56.729Z,2.00
2019-06-07T12:14:02.260Z,1.90
2019-06-07T12:15:08.781Z,1.80
2019-06-07T12:16:13.399Z,1.80
2019-06-07T12:17:19.618Z,2.00
2019-06-07T12:18:24.338Z,2.00
2019-06-07T12:19:29.848Z,2.00
2019-06-07T12:20:35.373Z,1.70
2019-06-07T12:21:40.888Z,1.90
2019-06-07T12:22:46.428Z,1.90
2019-06-07T12:23:51.932Z,1.90
2019-06-07T12:24:57.455Z,1.90
2019-06-07T12:26:02.970Z,1.80
2019-06-07T12:27:08.501Z,2.00
2019-06-07T12:28:14.649Z,2.20
2019-06-07T12:29:19.533Z,2.00
2019-06-07T12:30:27.987Z,1.90
2019-06-07T12:31:30.580Z,2.00
2019-06-07T12:32:36.099Z,1.90
2019-06-07T12:33:41.608Z,1.90
2019-06-07T12:34:47.136Z,1.80
2019-06-07T12:35:52.651Z,2.00
2019-06-07T12:36:58.182Z,2.00
2019-06-07T12:38:03.710Z,2.00
2019-06-07T12:39:09.209Z,2.10
2019-06-07T12:40:19.399Z,2.00
2019-06-07T12:41:20.354Z,1.90
2019-06-07T12:42:25.782Z,2.00
2019-06-07T12:43:31.292Z,2.10
2019-06-07T12:44:36.814Z,1.90
2019-06-07T12:45:45.260Z,1.80
2019-06-07T12:46:47.855Z,1.60
2019-06-07T12:47:53.403Z,1.70
2019-06-07T12:48:58.888Z,1.70
2019-06-07T12:50:04.418Z,2.00
2019-06-07T12:51:09.940Z,1.80
2019-06-07T12:52:17.715Z,1.60
2019-06-07T12:53:25.930Z,1.60
2019-06-07T12:54:26.494Z,1.40
2019-06-07T12:55:32.023Z,1.60
2019-06-07T12:56:37.547Z,1.60
2019-06-07T12:57:43.058Z,1.60
2019-06-07T12:58:48.576Z,1.90
2019-06-07T12:59:54.102Z,1.70
2019-06-07T13:00:59.963Z,1.80
2019-06-07T13:02:05.137Z,1.80
2019-06-07T13:03:10.664Z,1.60
2019-06-07T13:04:16.387Z,1.60
2019-06-07T13:05:21.782Z,1.60
2019-06-07T13:06:27.991Z,1.60
2019-06-07T13:07:32.747Z,1.80
2019-06-07T13:08:38.260Z,7.90
2019-06-07T13:09:43.790Z,3.10
2019-06-07T13:10:49.298Z,2.40
2019-06-07T13:11:54.835Z,2.00
2019-06-07T13:13:00.346Z,1.80
2019-06-07T13:14:05.865Z,2.00
2019-06-07T13:15:14.985Z,1.70
2019-06-07T13:16:18.263Z,1.80
2019-06-07T13:17:22.429Z,2.10
2019-06-07T13:18:28.522Z,1.60
2019-06-07T13:19:33.473Z,2.10
2019-06-07T13:20:38.989Z,3.00
2019-06-07T13:21:44.520Z,2.50
2019-06-07T13:22:50.027Z,2.00
2019-06-07T13:23:55.547Z,2.20
2019-06-07T13:25:01.065Z,2.10
2019-06-07T13:26:06.588Z,3.10
2019-06-07T13:27:12.103Z,2.20
2019-06-07T13:28:18.907Z,1.80
2019-06-07T13:29:23.167Z,1.60
2019-06-07T13:30:29.047Z,1.70
2019-06-07T13:31:34.198Z,1.70
2019-06-07T13:32:39.705Z,1.60
2019-06-07T13:33:45.237Z,1.60
2019-06-07T13:34:50.757Z,1.80
2019-06-07T13:35:56.289Z,1.80
2019-06-07T13:37:01.800Z,1.60
2019-06-07T13:38:07.320Z,1.60
2019-06-07T13:39:12.831Z,1.40
2019-06-07T13:40:19.740Z,1.70
2019-06-07T13:41:36.808Z,1.30
2019-06-07T13:42:29.390Z,1.60
2019-06-07T13:43:34.911Z,1.50
2019-06-07T13:44:40.435Z,1.30
2019-06-07T13:45:45.957Z,1.50
2019-06-07T13:46:51.546Z,1.70
2019-06-07T13:47:57.002Z,1.70
2019-06-07T13:49:02.513Z,1.70
2019-06-07T13:50:08.034Z,1.70
2019-06-07T13:51:13.704Z,1.50
2019-06-07T13:52:19.107Z,1.80
2019-06-07T13:53:25.021Z,1.50
2019-06-07T13:54:30.107Z,1.50
2019-06-07T13:55:35.631Z,1.60
2019-06-07T13:57:00.833Z,1.50
2019-06-07T13:57:46.673Z,1.50
2019-06-07T13:58:52.204Z,1.60
2019-06-07T13:59:57.718Z,1.50
2019-06-07T14:01:03.231Z,1.60
2019-06-07T14:02:08.760Z,1.60
2019-06-07T14:03:14.286Z,1.50
2019-06-07T14:04:20.902Z,1.40
2019-06-07T14:05:25.317Z,1.60
2019-06-07T14:06:30.838Z,1.60
2019-06-07T14:07:36.359Z,1.60
2019-06-07T14:08:41.887Z,1.50
2019-06-07T14:09:47.398Z,1.60
2019-06-07T14:10:52.911Z,1.60
2019-06-07T14:11:58.435Z,1.60
2019-06-07T14:13:03.961Z,1.60
2019-06-07T14:14:09.477Z,1.60
2019-06-07T14:15:15.000Z,1.50
2019-06-07T14:16:22.011Z,1.60
2019-06-07T14:17:28.094Z,1.70
2019-06-07T14:18:31.564Z,1.50
2019-06-07T14:19:37.075Z,1.40
2019-06-07T14:20:42.607Z,1.60
2019-06-07T14:21:48.113Z,1.40
2019-06-07T14:22:54.484Z,1.70
2019-06-07T14:23:59.166Z,1.40
2019-06-07T14:25:04.696Z,1.50
2019-06-07T14:26:10.198Z,1.50
2019-06-07T14:27:15.734Z,1.50
2019-06-07T14:28:24.659Z,1.60
2019-06-07T14:29:27.789Z,1.50
2019-06-07T14:30:32.650Z,1.50
2019-06-07T14:31:37.802Z,1.60
2019-06-07T14:32:43.321Z,1.50
2019-06-07T14:33:48.849Z,1.80
2019-06-07T14:34:54.360Z,1.30
2019-06-07T14:35:59.874Z,1.40